Cumberland College, KY

08:18 PM EDT on Oktober 01, 2014 (GMT -0400)
Mackey Bend | Change Station
CLOSE
Current Station
Personal Weather Stations
Location: Barbourville, KY
Elevation: 1020 ft
Nearby Weather Stations

Elev 1020 ft 36.81 °N, 83.96 °W | Updated 2 seconds ago

Klart
Klart
62.2 °F
Feels Like 62.2 °F
N
0.0
Vind Växlande Vind from O/SO
Gusts 0.0 miles/tim

Idag
High -- | Low -- °F
--% Chance of Precip.
Yesterday
High -- | Low -- °F
Precip. -- tum
7:31 AM 7:20 PM
Första kvarteret, 52% visible
Lufttryck 29.91 tum
Sikt 10.0 miles
Molnigt Klart
Daggpunkt 61 °F
Luftfuktighet 95%
Rainfall 0.00 tum
Snow Depth Not available.
UV 0 out of 12
Pollen 4.90 out of 12
Air Quality Not available.
Flu Activity Not available.
METAR KLOZ 302353Z AUTO 00000KT 10SM CLR 21/14 A2993 RMK AO2 SLP128 T02110144 10283 20211 53004

More Conditions Fewer Conditions

Lufttryck 29.91 tum
Sikt 10.0 miles
Molnigt Klart
Daggpunkt 61 °F
Luftfuktighet 95%
Rainfall 0.00 tum
Snow Depth Not available.
UV 0 out of 12
Pollen 4.90 out of 12
Air Quality Not available.
Flu Activity Not available.
METAR KLOZ 302353Z AUTO 00000KT 10SM CLR 21/14 A2993 RMK AO2 SLP128 T02110144 10283 20211 53004

More Conditions Fewer Conditions

10-Day Weather Forecast

Almanac

Astronomi

Oct. 01, 2014 Rise Set
Actual Time 7:31 AM EDT 7:20 PM EDT
Civil Twilight 7:06 AM EDT 7:45 PM EDT
Nautical Twilight 6:36 AM EDT 8:15 PM EDT
Astronomical Twilight 6:05 AM EDT 8:45 PM EDT
Månen 2:25 PM EDT (10/1) Ingen månnedgång
Length Of Visible Light 12h 39m
Dagens längd
11h 48m
Tomorrow will be 2m 19s shorter.
Första kvarteret, 52% of the Moon is Illuminated
Idag
Första kvarteret
Oct 8
Fullmåne
Oct 15
Sista kvarteret
Oct 23
New
Oct 30
Första kvarteret

Today's Extremes

State Highs State Lows

Community

WunderPhotos

Upload Photos

1,758,097 photos uploaded!

WunderBlogs® & News

Nearby

Snödjup

Station Depth Elevation
No new snow has been reported.

Earthquake Activity

Stad Distance Mag. Time & Date
No recent earthquake activity has been reported nearby.
Minimum magnitude displayed is 2.5.

Coastal Water Temperatures

Plats Temperatur
No Stations Reporting

Nearby Weather Stations